Time;durP1;ratioP1;P1;durP2;ratioP2;P2;SDS_P1;SDS_P2;PMS_P1;PMS_P2;Temp;Humidity;BMP_temperature;BMP_pressure;BME280_temperature;BME280_humidity;BME280_pressure;Samples;Min_cycle;Max_cycle;Signal;HPM_P1;HPM_P2
2024/01/19 00:00:16;;;;;;;4.60;1.30;;;;;;;0.62;100.00;100075.53;5071260;28;20487;-72
2024/01/19 00:02:42;;;;;;;5.32;1.42;;;;;;;0.45;100.00;100053.31;5073164;28;20040;-70
2024/01/19 00:05:09;;;;;;;2.92;1.23;;;;;;;0.49;100.00;100060.16;5072404;28;20155;-70
2024/01/19 00:07:36;;;;;;;3.22;1.40;;;;;;;0.62;100.00;100071.25;5072923;28;20044;-70
2024/01/19 00:10:03;;;;;;;2.63;1.45;;;;;;;0.71;100.00;100058.28;5072419;28;20110;-70
2024/01/19 00:12:35;;;;;;;3.40;1.30;;;;;;;0.51;100.00;100063.59;5073263;28;20049;-70
2024/01/19 00:15:07;;;;;;;6.03;1.20;;;;;;;0.55;100.00;100082.47;5072849;28;20502;-72
2024/01/19 00:17:33;;;;;;;6.30;1.38;;;;;;;0.79;100.00;100093.44;5072802;28;20036;-72
2024/01/19 00:20:00;;;;;;;3.75;1.25;;;;;;;0.71;100.00;100096.09;5072062;28;20053;-72
2024/01/19 00:22:28;;;;;;;3.53;1.20;;;;;;;0.77;100.00;100075.41;5072971;28;20075;-72
2024/01/19 00:24:55;;;;;;;1.95;1.02;;;;;;;0.99;100.00;100082.97;5072794;28;20040;-72
2024/01/19 00:27:22;;;;;;;3.53;1.30;;;;;;;1.03;100.00;100092.41;5060830;28;20100;-72
2024/01/19 00:29:48;;;;;;;2.67;1.10;;;;;;;0.96;100.00;100047.78;5069078;28;20049;-72
2024/01/19 00:32:15;;;;;;;2.22;1.05;;;;;;;1.14;100.00;100083.69;5072372;28;20163;-72
2024/01/19 00:34:42;;;;;;;3.35;1.10;;;;;;;1.14;100.00;100062.22;5070325;28;20049;-72
2024/01/19 00:37:08;;;;;;;3.10;1.05;;;;;;;1.16;100.00;100078.50;5071402;28;20076;-72
2024/01/19 00:39:35;;;;;;;3.35;1.00;;;;;;;1.22;100.00;100075.88;5071644;28;20409;-72
2024/01/19 00:42:02;;;;;;;3.72;1.20;;;;;;;1.28;100.00;100064.66;5072772;28;20072;-71
2024/01/19 00:44:29;;;;;;;3.47;1.20;;;;;;;1.22;100.00;100046.66;5072479;28;20055;-70
2024/01/19 00:46:55;;;;;;;3.03;1.20;;;;;;;1.30;100.00;100071.50;5072370;28;20044;-72
2024/01/19 00:49:22;;;;;;;3.25;1.10;;;;;;;1.31;100.00;100078.38;5070621;28;20052;-72
2024/01/19 00:51:49;;;;;;;4.50;1.10;;;;;;;1.56;100.00;100091.00;5072048;28;20736;-72
2024/01/19 00:54:16;;;;;;;2.33;0.90;;;;;;;1.32;100.00;100103.28;5070820;28;20048;-72
2024/01/19 00:56:43;;;;;;;6.07;1.42;;;;;;;1.37;100.00;100087.75;5056395;28;20388;-72
2024/01/19 00:59:10;;;;;;;2.15;1.00;;;;;;;1.44;100.00;100073.09;5055607;28;20044;-73
2024/01/19 01:01:36;;;;;;;2.97;1.10;;;;;;;1.48;100.00;100091.06;5071346;28;20453;-72
2024/01/19 01:04:03;;;;;;;1.48;1.05;;;;;;;1.66;100.00;100096.91;5054729;28;20487;-72
2024/01/19 01:06:30;;;;;;;2.05;1.10;;;;;;;1.26;100.00;100081.88;5071769;28;20167;-72
2024/01/19 01:08:59;;;;;;;1.52;1.10;;;;;;;1.51;100.00;100098.78;5069825;28;20127;-72
2024/01/19 01:11:27;;;;;;;3.17;1.10;;;;;;;1.39;100.00;100091.19;5058246;28;20056;-72
2024/01/19 01:13:55;;;;;;;1.83;1.10;;;;;;;1.42;100.00;100100.63;5070762;28;20065;-72
2024/01/19 01:16:21;;;;;;;2.25;1.20;;;;;;;1.46;100.00;100091.97;5072148;28;20052;-72
2024/01/19 01:18:48;;;;;;;2.38;1.00;;;;;;;1.41;100.00;100097.16;5070994;28;20045;-72
2024/01/19 01:21:15;;;;;;;1.35;0.95;;;;;;;1.32;100.00;100092.13;5071954;28;20049;-72
2024/01/19 01:23:42;;;;;;;2.15;1.10;;;;;;;1.39;100.00;100080.00;5071898;28;20071;-72
2024/01/19 01:26:09;;;;;;;2.72;1.30;;;;;;;1.28;100.00;100082.72;5071892;28;20056;-72
2024/01/19 01:28:35;;;;;;;1.10;1.00;;;;;;;1.04;100.00;100058.00;5071017;28;20398;-72
2024/01/19 01:31:03;;;;;;;1.83;1.00;;;;;;;1.12;100.00;100085.44;5071412;28;20496;-72
2024/01/19 01:33:29;;;;;;;1.10;1.00;;;;;;;1.01;100.00;100070.91;5070372;28;20052;-72
2024/01/19 01:35:56;;;;;;;0.93;0.90;;;;;;;0.79;100.00;100063.38;5059164;28;20419;-72
2024/01/19 01:38:23;;;;;;;1.63;1.00;;;;;;;1.03;100.00;100067.47;5069063;28;20101;-72
2024/01/19 01:40:50;;;;;;;1.48;1.00;;;;;;;1.08;100.00;100073.44;5069895;28;20056;-73
2024/01/19 01:43:24;;;;;;;3.30;1.50;;;;;;;1.06;100.00;100075.19;5071351;28;20075;-72
2024/01/19 01:45:52;;;;;;;1.02;0.93;;;;;;;0.93;100.00;100068.41;5071405;28;20078;-72
2024/01/19 01:48:21;;;;;;;3.30;1.10;;;;;;;0.77;100.00;100070.25;5069882;28;20051;-72
2024/01/19 01:50:49;;;;;;;2.70;1.15;;;;;;;0.75;100.00;100072.84;5061018;28;20056;-72
2024/01/19 01:53:18;;;;;;;2.63;1.27;;;;;;;0.61;100.00;100079.84;5060136;28;20067;-72
2024/01/19 01:55:46;;;;;;;2.97;1.20;;;;;;;0.52;100.00;100061.88;5056286;28;20044;-72
2024/01/19 01:58:15;;;;;;;8.73;1.30;;;;;;;0.47;100.00;100072.19;5069842;28;20048;-69
2024/01/19 02:00:43;;;;;;;2.85;1.20;;;;;;;0.23;100.00;100054.34;5070103;28;20094;-72
2024/01/19 02:03:10;;;;;;;2.58;1.20;;;;;;;0.30;100.00;100076.59;5067647;28;20494;-72
2024/01/19 02:05:37;;;;;;;4.65;1.85;;;;;;;0.27;100.00;100082.63;5070123;28;20048;-72
2024/01/19 02:08:04;;;;;;;3.15;1.33;;;;;;;0.24;100.00;100074.94;5069827;28;20306;-71
2024/01/19 02:10:31;;;;;;;3.42;1.25;;;;;;;0.24;100.00;100069.78;5070674;28;20048;-72
2024/01/19 02:12:58;;;;;;;2.20;1.17;;;;;;;0.15;100.00;100072.41;5065860;28;20052;-72
2024/01/19 02:15:29;;;;;;;1.45;1.10;;;;;;;0.20;100.00;100072.41;5061612;28;20118;-72
2024/01/19 02:17:56;;;;;;;3.78;1.73;;;;;;;0.18;100.00;100074.97;5068914;28;20052;-72
2024/01/19 02:20:23;;;;;;;3.70;1.27;;;;;;;0.24;100.00;100074.94;5069418;28;20051;-72
2024/01/19 02:22:52;;;;;;;7.47;1.55;;;;;;;0.21;100.00;100068.94;5070389;28;20060;-72
2024/01/19 02:25:19;;;;;;;2.53;1.10;;;;;;;0.12;100.00;100046.69;5061097;28;20056;-72
2024/01/19 02:27:46;;;;;;;4.22;1.33;;;;;;;0.04;100.00;100031.28;5063897;28;20083;-72
2024/01/19 02:30:13;;;;;;;3.05;1.20;;;;;;;0.26;100.00;100072.34;5066519;28;20463;-72
2024/01/19 02:32:39;;;;;;;3.97;1.30;;;;;;;0.21;100.00;100072.34;5069721;28;20067;-72
2024/01/19 02:35:07;;;;;;;8.45;1.50;;;;;;;0.05;100.00;100045.84;5070450;28;20353;-72
2024/01/19 02:37:33;;;;;;;3.35;1.20;;;;;;;0.18;100.00;100074.97;5054058;28;20056;-71
2024/01/19 02:40:00;;;;;;;3.15;1.30;;;;;;;0.12;100.00;100065.53;5065868;28;20080;-72
2024/01/19 02:42:30;;;;;;;4.40;1.40;;;;;;;0.23;100.00;100073.22;5070298;28;20048;-71
2024/01/19 02:44:59;;;;;;;2.90;1.40;;;;;;;0.21;100.00;100062.06;5069022;28;20170;-72
2024/01/19 02:47:27;;;;;;;1.45;1.00;;;;;;;0.24;100.00;100056.06;5069522;28;20616;-72
2024/01/19 02:49:55;;;;;;;3.08;1.33;;;;;;;0.09;100.00;100046.69;5069724;28;20407;-72
2024/01/19 02:52:21;;;;;;;4.05;1.30;;;;;;;0.24;100.00;100067.19;5070511;28;20505;-72
2024/01/19 02:54:48;;;;;;;5.50;2.53;;;;;;;0.23;100.00;100056.91;5068295;28;20536;-72
2024/01/19 02:57:15;;;;;;;4.68;1.20;;;;;;;0.08;100.00;100037.28;5066211;28;20048;-72
2024/01/19 02:59:42;;;;;;;2.70;1.30;;;;;;;0.24;100.00;100050.91;5062581;28;20040;-72
2024/01/19 03:02:08;;;;;;;3.90;1.20;;;;;;;0.26;100.00;100038.88;5068779;28;20052;-72
2024/01/19 03:04:35;;;;;;;6.68;1.65;;;;;;;0.19;100.00;100032.91;5057620;28;20474;-72
2024/01/19 03:07:02;;;;;;;3.55;1.30;;;;;;;0.26;100.00;100021.69;5070076;28;20055;-72
2024/01/19 03:09:28;;;;;;;2.75;1.10;;;;;;;0.32;100.00;100008.78;5067744;28;20051;-72
2024/01/19 03:11:55;;;;;;;2.35;1.10;;;;;;;0.34;100.00;100012.19;5070203;28;20071;-72
2024/01/19 03:14:22;;;;;;;5.40;2.92;;;;;;;0.37;100.00;99999.31;5069898;28;20448;-71
2024/01/19 03:16:49;;;;;;;3.28;1.42;;;;;;;0.38;100.00;100002.72;5070498;28;20076;-72
2024/01/19 03:19:16;;;;;;;7.78;1.20;;;;;;;0.40;100.00;100005.31;5066377;28;20045;-72
2024/01/19 03:21:43;;;;;;;3.10;1.13;;;;;;;0.12;100.00;99954.00;5058509;28;20532;-72
2024/01/19 03:24:09;;;;;;;2.92;1.20;;;;;;;0.43;100.00;100006.13;5055590;28;20049;-72
2024/01/19 03:26:36;;;;;;;3.50;1.25;;;;;;;0.43;100.00;99998.41;5069801;28;20432;-72
2024/01/19 03:29:03;;;;;;;4.43;1.65;;;;;;;0.41;100.00;99995.00;5065438;28;20394;-72
2024/01/19 03:31:30;;;;;;;1.98;1.00;;;;;;;0.30;100.00;99986.47;5071343;28;20044;-72
2024/01/19 03:33:56;;;;;;;1.92;1.20;;;;;;;0.45;100.00;99990.66;5073508;28;20060;-72
2024/01/19 03:36:23;;;;;;;2.30;1.10;;;;;;;0.56;100.00;99987.13;5070351;28;20084;-72
2024/01/19 03:38:50;;;;;;;2.67;1.10;;;;;;;0.42;100.00;99988.94;5060899;28;20131;-72
2024/01/19 03:41:17;;;;;;;2.38;1.15;;;;;;;0.43;100.00;99994.97;5073378;28;20462;-71
2024/01/19 03:43:44;;;;;;;1.25;1.00;;;;;;;0.24;100.00;99964.22;5071119;28;20136;-72
2024/01/19 03:46:11;;;;;;;3.45;1.20;;;;;;;0.35;100.00;99979.56;5059889;28;20059;-72
2024/01/19 03:48:37;;;;;;;4.15;1.85;;;;;;;0.33;100.00;99987.31;5071111;28;20036;-72
2024/01/19 03:51:04;;;;;;;2.67;1.10;;;;;;;0.40;100.00;99976.97;5073273;28;20060;-72
2024/01/19 03:53:31;;;;;;;2.25;1.10;;;;;;;0.39;100.00;99965.81;5072548;28;20048;-72
2024/01/19 03:55:57;;;;;;;1.55;1.10;;;;;;;0.37;100.00;99963.25;5070914;28;20054;-72
2024/01/19 03:58:24;;;;;;;2.47;1.10;;;;;;;0.38;100.00;99964.94;5071785;28;20399;-72
2024/01/19 04:00:51;;;;;;;5.20;1.10;;;;;;;0.30;100.00;99959.03;5072899;28;20048;-72
2024/01/19 04:03:19;;;;;;;1.45;0.93;;;;;;;0.22;100.00;99971.09;5055201;28;20049;-72
2024/01/19 04:05:46;;;;;;;1.23;1.00;;;;;;;-0.01;100.00;99976.41;5059404;28;20060;-72
2024/01/19 04:08:13;;;;;;;2.65;1.20;;;;;;;-0.32;100.00;99960.28;5071682;28;20048;-72
2024/01/19 04:10:40;;;;;;;1.58;1.10;;;;;;;-0.32;100.00;99968.00;5072594;28;20051;-72
2024/01/19 04:13:07;;;;;;;2.05;1.20;;;;;;;-0.35;100.00;99973.16;5073524;28;20441;-72
2024/01/19 04:15:34;;;;;;;2.55;1.25;;;;;;;-0.43;100.00;99973.22;5072696;28;20063;-72
2024/01/19 04:18:00;;;;;;;1.95;1.10;;;;;;;-0.40;100.00;99968.06;5071986;28;20518;-72
2024/01/19 04:20:27;;;;;;;1.73;1.08;;;;;;;-0.38;100.00;99972.31;5072471;28;20456;-72
2024/01/19 04:22:54;;;;;;;2.08;1.10;;;;;;;-0.37;100.00;99962.91;5072657;28;20110;-72
2024/01/19 04:25:20;;;;;;;2.90;1.20;;;;;;;-0.23;100.00;99970.53;5072735;28;20135;-72
2024/01/19 04:27:47;;;;;;;4.75;1.20;;;;;;;-0.23;100.00;99955.09;5072138;28;20434;-72
2024/01/19 04:30:14;;;;;;;3.25;1.20;;;;;;;-0.22;100.00;99952.50;5060305;28;20114;-72
2024/01/19 04:32:40;;;;;;;1.90;1.10;;;;;;;-0.11;100.00;99941.28;5071196;28;20386;-72
2024/01/19 04:35:07;;;;;;;2.15;1.50;;;;;;;-0.08;100.00;99942.13;5072429;28;20055;-72
2024/01/19 04:37:34;;;;;;;2.25;1.00;;;;;;;0.06;100.00;99938.63;5060333;28;20049;-72
2024/01/19 04:40:01;;;;;;;1.70;1.10;;;;;;;0.35;100.00;99939.25;5069558;28;20131;-72
2024/01/19 04:42:27;;;;;;;1.88;1.00;;;;;;;0.44;100.00;99921.97;5072039;28;20056;-72
2024/01/19 04:44:54;;;;;;;2.00;1.15;;;;;;;0.60;100.00;99907.22;5072086;28;20429;-72
2024/01/19 04:47:21;;;;;;;2.85;1.10;;;;;;;0.79;100.00;99921.63;5072711;28;20352;-72
2024/01/19 04:49:48;;;;;;;2.03;1.00;;;;;;;0.69;100.00;99920.88;5071231;28;20048;-72
2024/01/19 04:52:14;;;;;;;1.20;1.00;;;;;;;0.87;100.00;99919.84;5065147;28;20474;-72
2024/01/19 04:54:41;;;;;;;1.70;1.02;;;;;;;0.91;100.00;99895.72;5063739;28;20328;-72
2024/01/19 04:57:08;;;;;;;3.15;1.30;;;;;;;1.03;100.00;99899.91;5067243;28;20048;-72
2024/01/19 04:59:35;;;;;;;1.65;1.00;;;;;;;1.00;100.00;99883.63;5063350;28;20053;-72
2024/01/19 05:02:01;;;;;;;2.60;1.10;;;;;;;1.18;100.00;99885.09;5072000;28;20076;-72
2024/01/19 05:04:28;;;;;;;2.05;1.20;;;;;;;1.30;100.00;99884.94;5071661;28;20048;-72
2024/01/19 05:06:55;;;;;;;1.73;0.98;;;;;;;1.20;100.00;99862.72;5056300;28;20110;-72
2024/01/19 05:09:21;;;;;;;3.00;1.33;;;;;;;1.28;100.00;99890.13;5058244;28;20040;-71
2024/01/19 05:11:48;;;;;;;3.97;1.10;;;;;;;1.22;100.00;99895.38;5070747;28;20355;-72
2024/01/19 05:14:15;;;;;;;2.55;1.00;;;;;;;1.48;100.00;99892.41;5071055;28;20044;-72
2024/01/19 05:16:41;;;;;;;3.25;1.00;;;;;;;1.46;100.00;99885.59;5071023;28;20486;-72
2024/01/19 05:19:08;;;;;;;2.00;1.08;;;;;;;1.39;100.00;99874.50;5070096;28;20041;-71
2024/01/19 05:21:35;;;;;;;1.50;0.98;;;;;;;1.59;100.00;99865.63;5061900;28;20483;-70
2024/01/19 05:24:02;;;;;;;2.15;1.10;;;;;;;1.55;100.00;99877.72;5053037;28;20056;-70
2024/01/19 05:26:30;;;;;;;1.85;0.90;;;;;;;1.58;100.00;99880.25;5071674;28;20410;-71
2024/01/19 05:28:57;;;;;;;2.63;1.17;;;;;;;1.55;100.00;99880.28;5070021;28;20037;-71
2024/01/19 05:31:24;;;;;;;2.20;1.10;;;;;;;1.61;100.00;99867.31;5069957;28;20127;-70
2024/01/19 05:33:51;;;;;;;2.58;1.08;;;;;;;1.65;100.00;99875.88;5071516;28;20055;-70
2024/01/19 05:36:19;;;;;;;6.05;1.10;;;;;;;1.73;100.00;99886.06;5070945;28;20098;-70
2024/01/19 05:38:46;;;;;;;2.17;1.00;;;;;;;1.66;100.00;99873.22;5068766;28;20044;-71
2024/01/19 05:41:18;;;;;;;1.38;0.90;;;;;;;1.58;100.00;99863.94;5071900;28;20131;-70
2024/01/19 05:43:45;;;;;;;1.92;1.10;;;;;;;1.82;100.00;99876.44;5071093;28;20087;-70
2024/01/19 05:46:13;;;;;;;1.88;1.10;;;;;;;1.90;100.00;99884.94;5069988;28;20102;-70
2024/01/19 05:48:40;;;;;;;1.95;1.10;;;;;;;1.99;100.00;99872.75;5070522;28;20056;-70
2024/01/19 05:51:15;;;;;;;1.10;1.00;;;;;;;1.99;100.00;99881.34;5071784;28;20413;-70
2024/01/19 05:53:42;;;;;;;2.92;1.10;;;;;;;1.97;100.00;99869.34;5070086;28;20045;-71
2024/01/19 05:56:10;;;;;;;2.38;1.10;;;;;;;1.88;100.00;99866.03;5069816;28;20393;-71
2024/01/19 05:58:36;;;;;;;2.75;1.10;;;;;;;1.87;100.00;99877.22;5069880;28;20049;-70
2024/01/19 06:01:04;;;;;;;3.25;0.98;;;;;;;2.00;100.00;99874.44;5069805;28;20072;-70
2024/01/19 06:03:35;;;;;;;3.90;1.27;;;;;;;1.99;100.00;99862.44;5064391;28;20048;-70
2024/01/19 06:06:03;;;;;;;7.00;1.80;;;;;;;2.07;100.00;99876.03;5070697;28;20463;-70
2024/01/19 06:08:31;;;;;;;3.08;1.00;;;;;;;2.11;100.00;99879.44;5067737;28;20136;-70
2024/01/19 06:10:58;;;;;;;2.65;1.05;;;;;;;2.15;100.00;99875.94;5070211;28;20155;-70
2024/01/19 06:13:24;;;;;;;4.88;1.25;;;;;;;2.04;100.00;99879.53;5070157;28;20490;-72
2024/01/19 06:15:51;;;;;;;2.17;1.23;;;;;;;2.11;100.00;99872.56;5066798;28;20179;-72
2024/01/19 06:18:18;;;;;;;5.53;1.00;;;;;;;2.00;100.00;99874.44;5052242;28;20497;-72
2024/01/19 06:20:45;;;;;;;4.85;1.67;;;;;;;2.00;100.00;99872.75;5069758;28;20090;-72
2024/01/19 06:23:13;;;;;;;4.80;1.30;;;;;;;2.08;100.00;99873.44;5069550;28;20059;-72
2024/01/19 06:25:40;;;;;;;2.08;1.10;;;;;;;2.05;100.00;99890.72;5069624;28;20068;-72
2024/01/19 06:28:07;;;;;;;3.63;1.20;;;;;;;1.97;100.00;99872.78;5070068;28;20040;-72
2024/01/19 06:30:34;;;;;;;2.83;1.33;;;;;;;2.07;100.00;99879.50;5069958;28;20043;-72
2024/01/19 06:33:01;;;;;;;4.93;1.45;;;;;;;2.05;100.00;99870.06;5055402;28;20045;-72
2024/01/19 06:35:28;;;;;;;4.38;1.02;;;;;;;1.89;100.00;99848.81;5062127;28;20425;-72
2024/01/19 06:37:55;;;;;;;4.88;1.15;;;;;;;1.95;100.00;99864.22;5069715;28;20472;-72
2024/01/19 06:40:21;;;;;;;2.10;1.10;;;;;;;2.12;100.00;99861.34;5061105;28;20051;-69
2024/01/19 06:42:48;;;;;;;3.25;1.20;;;;;;;2.09;100.00;99859.66;5063440;28;20044;-72
2024/01/19 06:45:18;;;;;;;2.63;1.10;;;;;;;2.22;100.00;99864.63;5069551;28;20139;-70
2024/01/19 06:47:46;;;;;;;3.08;1.10;;;;;;;2.20;100.00;99856.91;5069926;28;20501;-72
2024/01/19 06:50:12;;;;;;;2.05;1.08;;;;;;;2.30;100.00;99865.31;5069048;28;20180;-72
2024/01/19 06:52:39;;;;;;;4.53;1.20;;;;;;;2.09;100.00;99864.00;5069738;28;20486;-72
2024/01/19 06:55:06;;;;;;;5.35;1.17;;;;;;;2.15;100.00;99861.28;5069308;28;20055;-72
2024/01/19 06:57:33;;;;;;;8.05;2.22;;;;;;;2.15;100.00;99868.19;5069716;28;20048;-72
2024/01/19 06:59:59;;;;;;;3.42;1.20;;;;;;;1.98;100.00;99851.22;5069300;28;20064;-72
2024/01/19 07:02:26;;;;;;;7.25;2.65;;;;;;;2.19;100.00;99864.66;5070537;28;20052;-72
2024/01/19 07:04:53;;;;;;;5.38;1.67;;;;;;;2.30;100.00;99869.66;5064754;28;20211;-72
2024/01/19 07:07:20;;;;;;;3.30;1.10;;;;;;;2.30;100.00;99872.22;5073226;28;20056;-72
2024/01/19 07:09:47;;;;;;;3.45;1.20;;;;;;;2.26;100.00;99876.59;5073671;28;20099;-72
2024/01/19 07:12:16;;;;;;;4.60;1.42;;;;;;;2.30;100.00;99872.22;5073188;28;20048;-72
2024/01/19 07:14:43;;;;;;;4.88;1.17;;;;;;;2.32;100.00;99879.09;5074289;28;20402;-72
2024/01/19 07:17:10;;;;;;;5.22;1.52;;;;;;;2.45;100.00;99877.13;5059301;28;20506;-72
2024/01/19 07:19:41;;;;;;;5.00;1.70;;;;;;;2.33;100.00;99880.78;5073049;28;20139;-72
2024/01/19 07:22:09;;;;;;;4.05;1.30;;;;;;;2.32;100.00;99871.34;5073005;28;20143;-72
2024/01/19 07:24:35;;;;;;;2.53;1.10;;;;;;;2.40;100.00;99863.44;5073561;28;20056;-72
2024/01/19 07:27:04;;;;;;;3.45;1.33;;;;;;;2.37;100.00;99874.66;5071882;28;20052;-72
2024/01/19 07:29:31;;;;;;;2.22;1.10;;;;;;;2.37;100.00;99869.50;5072021;28;20110;-72
2024/01/19 07:31:58;;;;;;;2.15;1.05;;;;;;;2.43;100.00;99874.56;5073679;28;20470;-72
2024/01/19 07:34:25;;;;;;;2.30;1.20;;;;;;;2.36;100.00;99867.81;5072451;28;20210;-72
2024/01/19 07:36:52;;;;;;;3.30;1.13;;;;;;;2.18;100.00;99866.41;5066714;28;20052;-72
2024/01/19 07:39:23;;;;;;;2.20;1.08;;;;;;;2.26;100.00;99874.00;5065061;28;20052;-72
2024/01/19 07:41:51;;;;;;;3.45;1.42;;;;;;;2.33;100.00;99885.94;5073495;28;20044;-72
2024/01/19 07:44:18;;;;;;;2.75;1.40;;;;;;;2.28;100.00;99882.59;5073108;28;20064;-72
2024/01/19 07:46:45;;;;;;;2.50;1.10;;;;;;;2.23;100.00;99893.00;5072889;28;20048;-72
2024/01/19 07:49:12;;;;;;;4.10;1.27;;;;;;;2.25;100.00;99895.56;5072080;28;20056;-72
2024/01/19 07:51:39;;;;;;;3.95;1.30;;;;;;;2.19;100.00;99899.09;5071642;28;20052;-72
2024/01/19 07:54:08;;;;;;;2.88;1.40;;;;;;;2.18;100.00;99896.53;5073602;28;20483;-72
2024/01/19 07:56:35;;;;;;;1.83;1.05;;;;;;;2.16;100.00;99901.75;5069107;28;20127;-72
2024/01/19 07:59:02;;;;;;;1.80;1.00;;;;;;;2.24;100.00;99899.88;5061009;28;20045;-72
2024/01/19 08:01:29;;;;;;;2.45;1.23;;;;;;;2.32;100.00;99897.19;5066909;28;20051;-72
2024/01/19 08:03:55;;;;;;;3.90;1.10;;;;;;;2.50;100.00;99890.81;5072085;28;20055;-73
2024/01/19 08:06:22;;;;;;;2.58;1.10;;;;;;;2.50;100.00;99887.38;5071788;28;20081;-72
2024/01/19 08:08:49;;;;;;;1.65;1.00;;;;;;;2.62;100.00;99879.38;5071957;28;20131;-72
2024/01/19 08:11:16;;;;;;;3.63;1.15;;;;;;;2.66;100.00;99878.47;5073158;28;20052;-72
2024/01/19 08:13:42;;;;;;;1.60;1.00;;;;;;;2.74;100.00;99889.50;5072315;28;20053;-72
2024/01/19 08:16:09;;;;;;;2.25;1.00;;;;;;;2.93;100.00;99891.75;5071455;28;20045;-72
2024/01/19 08:18:36;;;;;;;4.22;1.00;;;;;;;2.91;100.00;99903.84;5063809;28;20044;-72
2024/01/19 08:21:04;;;;;;;5.97;1.30;;;;;;;2.83;100.00;99909.16;5056049;28;20044;-72
2024/01/19 08:23:32;;;;;;;2.88;1.15;;;;;;;2.69;100.00;99899.06;5064760;28;20048;-71
2024/01/19 08:25:59;;;;;;;4.78;1.30;;;;;;;2.54;100.00;99894.22;5067851;28;20482;-71
2024/01/19 08:28:28;;;;;;;2.35;1.05;;;;;;;2.53;100.00;99908.00;5055718;28;20131;-71
2024/01/19 08:30:54;;;;;;;1.63;1.00;;;;;;;2.48;100.00;99905.50;5072715;28;20063;-71
2024/01/19 08:33:22;;;;;;;2.35;1.27;;;;;;;2.41;100.00;99901.34;5073431;28;20363;-71
2024/01/19 08:35:49;;;;;;;1.08;0.90;;;;;;;2.50;100.00;99897.69;5071891;28;20076;-71
2024/01/19 08:38:17;;;;;;;1.65;1.00;;;;;;;2.45;100.00;99902.97;5062163;28;20089;-71
2024/01/19 08:40:43;;;;;;;3.10;1.33;;;;;;;2.47;100.00;99896.03;5070608;28;20045;-71
2024/01/19 08:43:10;;;;;;;5.20;1.85;;;;;;;2.34;100.00;99890.25;5071283;28;20076;-71
2024/01/19 08:45:37;;;;;;;5.80;1.58;;;;;;;2.34;100.00;99894.53;5072313;28;20052;-71
2024/01/19 08:48:05;;;;;;;3.03;1.30;;;;;;;2.33;100.00;99888.53;5071229;28;20052;-71
2024/01/19 08:50:32;;;;;;;2.25;1.17;;;;;;;2.28;100.00;99885.16;5071358;28;20056;-73
2024/01/19 08:52:58;;;;;;;2.83;1.20;;;;;;;2.35;100.00;99896.25;5071809;28;20057;-71
2024/01/19 08:55:25;;;;;;;2.60;1.10;;;;;;;2.28;100.00;99890.34;5070421;28;20053;-70
2024/01/19 08:57:52;;;;;;;2.50;1.20;;;;;;;2.31;100.00;99892.88;5070528;28;20490;-71
2024/01/19 09:00:19;;;;;;;2.40;1.15;;;;;;;2.26;100.00;99902.44;5054327;28;20045;-71
2024/01/19 09:02:49;;;;;;;3.53;1.23;;;;;;;2.20;100.00;99889.63;5071298;28;20060;-71
2024/01/19 09:05:28;;;;;;;4.13;1.30;;;;;;;2.41;100.00;99901.34;5068563;28;20057;-71
2024/01/19 09:07:56;;;;;;;4.57;1.27;;;;;;;2.37;100.00;99902.25;5054408;28;20049;-71
2024/01/19 09:10:23;;;;;;;2.28;1.20;;;;;;;2.54;100.00;99902.81;5069000;28;20517;-71
2024/01/19 09:12:50;;;;;;;4.43;1.20;;;;;;;2.49;100.00;99899.44;5070932;28;20568;-71
2024/01/19 09:15:17;;;;;;;4.70;1.20;;;;;;;2.51;100.00;99907.16;5071268;28;20060;-72
2024/01/19 09:17:44;;;;;;;1.38;1.00;;;;;;;2.41;100.00;99904.75;5071854;28;20048;-71
2024/01/19 09:20:11;;;;;;;2.25;1.20;;;;;;;2.34;100.00;99921.25;5071143;28;20049;-71
2024/01/19 09:22:38;;;;;;;4.40;1.15;;;;;;;2.28;100.00;99917.03;5071157;28;20607;-71
2024/01/19 09:25:05;;;;;;;3.55;1.58;;;;;;;2.27;100.00;99929.97;5060608;28;20060;-71
2024/01/19 09:27:33;;;;;;;2.78;1.00;;;;;;;2.25;100.00;99904.16;5064874;28;20080;-71
2024/01/19 09:29:59;;;;;;;2.40;1.42;;;;;;;2.34;100.00;99916.06;5066251;28;20050;-71
2024/01/19 09:32:26;;;;;;;2.67;1.40;;;;;;;2.36;100.00;99905.72;5056069;28;20583;-71
2024/01/19 09:34:53;;;;;;;4.65;1.73;;;;;;;2.42;100.00;99903.84;5058973;28;20063;-71
2024/01/19 09:37:20;;;;;;;5.38;1.90;;;;;;;2.49;100.00;99893.44;5059359;28;20073;-71
2024/01/19 09:39:47;;;;;;;4.75;1.80;;;;;;;2.63;100.00;99901.78;5066745;28;20045;-71
2024/01/19 09:42:27;;;;;;;2.90;1.30;;;;;;;2.65;100.00;99918.09;5062260;28;20049;-71
2024/01/19 09:45:04;;;;;;;2.13;1.10;;;;;;;2.71;100.00;99919.72;5066986;28;20052;-71
2024/01/19 09:47:46;;;;;;;3.30;1.30;;;;;;;2.68;100.00;99920.66;5070675;28;20098;-71
2024/01/19 09:50:18;;;;;;;3.45;1.13;;;;;;;2.76;100.00;99917.91;5069775;28;20174;-71
2024/01/19 09:52:54;;;;;;;1.52;1.00;;;;;;;2.81;100.00;99924.69;5071110;28;20055;-72
2024/01/19 09:55:24;;;;;;;3.72;1.05;;;;;;;2.76;100.00;99918.78;5071344;28;20067;-71
2024/01/19 09:57:51;;;;;;;3.80;1.40;;;;;;;2.69;100.00;99914.56;5063131;28;20056;-72
2024/01/19 10:00:19;;;;;;;2.50;1.10;;;;;;;2.88;100.00;99940.94;5069783;28;20041;-72
2024/01/19 10:02:52;;;;;;;3.45;1.20;;;;;;;3.01;100.00;99937.25;5061727;28;20049;-72
2024/01/19 10:05:20;;;;;;;3.75;1.35;;;;;;;2.95;100.00;99944.28;5067079;28;20110;-71
2024/01/19 10:07:57;;;;;;;2.35;1.13;;;;;;;3.13;100.00;99945.66;5069053;28;20374;-72
2024/01/19 10:10:25;;;;;;;2.78;1.20;;;;;;;3.25;100.00;99935.06;5068135;28;20492;-72
2024/01/19 10:12:52;;;;;;;2.92;1.10;;;;;;;3.32;100.00;99941.81;5061052;28;20059;-72
2024/01/19 10:15:19;;;;;;;2.65;1.10;;;;;;;3.26;100.00;99939.38;5065767;28;20059;-72
2024/01/19 10:17:46;;;;;;;2.92;1.20;;;;;;;3.36;100.00;99946.03;5069602;28;20125;-72
2024/01/19 10:20:16;;;;;;;5.18;1.75;;;;;;;3.38;100.00;99948.59;5057022;28;20380;-72
2024/01/19 10:22:43;;;;;;;2.83;1.23;;;;;;;3.42;100.00;99926.97;5069550;28;20090;-73
2024/01/19 10:25:14;;;;;;;1.95;1.10;;;;;;;3.64;100.00;99948.06;5070526;28;20048;-72
2024/01/19 10:27:47;;;;;;;4.93;1.20;;;;;;;3.70;100.00;99954.81;5055690;28;20059;-71
2024/01/19 10:30:27;;;;;;;4.45;1.27;;;;;;;3.65;100.00;99954.94;5069569;28;20044;-72
2024/01/19 10:33:04;;;;;;;4.70;1.40;;;;;;;3.67;100.00;99953.16;5064936;28;20487;-71
2024/01/19 10:35:31;;;;;;;7.18;1.40;;;;;;;3.73;100.00;99957.34;5063194;28;20474;-71
2024/01/19 10:38:05;;;;;;;3.95;1.83;;;;;;;3.62;100.00;99960.19;5055780;28;20513;-71
2024/01/19 10:40:34;;;;;;;5.68;2.00;;;;;;;3.66;100.00;99968.72;5061264;28;20045;-71
2024/01/19 10:43:01;;;;;;;7.13;2.70;;;;;;;3.58;100.00;99961.97;5054683;28;20119;-71
2024/01/19 10:45:29;;;;;;;5.63;1.83;;;;;;;3.51;100.00;99965.59;5070288;28;20418;-71
2024/01/19 10:48:03;;;;;;;6.10;1.63;;;;;;;3.44;100.00;99971.78;5069759;28;20094;-72
2024/01/19 10:50:30;;;;;;;8.50;1.65;;;;;;;3.37;100.00;99971.03;5069036;28;20045;-72
2024/01/19 10:53:00;;;;;;;4.65;1.55;;;;;;;3.46;100.00;99969.16;5062569;28;20055;-72
2024/01/19 10:55:29;;;;;;;3.28;1.42;;;;;;;3.39;100.00;99971.00;5055920;28;20571;-71
2024/01/19 10:58:11;;;;;;;5.88;1.75;;;;;;;3.36;100.00;99966.72;5066926;28;20425;-72
2024/01/19 11:00:44;;;;;;;5.07;1.33;;;;;;;3.48;100.00;99957.03;5054719;28;20068;-72
2024/01/19 11:03:11;;;;;;;5.05;1.40;;;;;;;3.50;100.00;99955.25;5069378;28;20268;-71
2024/01/19 11:05:39;;;;;;;4.72;1.67;;;;;;;3.52;100.00;99963.84;5064151;28;20048;-72
2024/01/19 11:08:05;;;;;;;6.20;1.85;;;;;;;3.52;100.00;99971.59;5060601;28;20090;-71
2024/01/19 11:10:32;;;;;;;4.13;1.35;;;;;;;3.32;100.00;99961.66;5066056;28;20041;-71
2024/01/19 11:13:00;;;;;;;3.47;1.65;;;;;;;3.33;100.00;99973.72;5049291;28;20500;-72
2024/01/19 11:15:51;;;;;;;5.45;1.50;;;;;;;3.32;100.00;99979.78;5057480;28;20583;-71
2024/01/19 11:18:18;;;;;;;7.00;1.40;;;;;;;3.34;100.00;99965.06;5068815;28;20048;-72
2024/01/19 11:20:45;;;;;;;4.47;1.40;;;;;;;3.39;100.00;99969.28;5070007;28;20363;-71
2024/01/19 11:23:13;;;;;;;8.75;1.48;;;;;;;3.30;100.00;99969.47;5060161;28;20053;-72
2024/01/19 11:25:45;;;;;;;3.08;1.13;;;;;;;3.41;100.00;99972.66;5064905;28;20052;-71
2024/01/19 11:28:23;;;;;;;6.38;1.73;;;;;;;3.60;100.00;99961.94;5069107;28;20048;-71
2024/01/19 11:31:11;;;;;;;6.38;1.60;;;;;;;3.64;100.00;99962.75;5065558;28;20136;-71
2024/01/19 11:33:38;;;;;;;4.38;1.33;;;;;;;3.72;100.00;99964.28;5058584;28;20046;-72